sensor_id;sensor_type;location;lat;lon;timestamp;pressure;altitude;pressure_sealevel;temperature;humidity
78892;BME280;68368;51.728;5.248;2023-11-18T00:01:48;102387.67;;;4.57;100.00
78892;BME280;68368;51.728;5.248;2023-11-18T00:03:53;102388.50;;;4.56;100.00
78892;BME280;68368;51.728;5.248;2023-11-18T00:05:58;102395.31;;;4.54;100.00
78892;BME280;68368;51.728;5.248;2023-11-18T00:08:03;102395.25;;;4.53;100.00
78892;BME280;68368;51.728;5.248;2023-11-18T00:10:09;102393.98;;;4.52;100.00
78892;BME280;68368;51.728;5.248;2023-11-18T00:12:14;102389.50;;;4.50;100.00
78892;BME280;68368;51.728;5.248;2023-11-18T00:14:19;102386.59;;;4.47;100.00
78892;BME280;68368;51.728;5.248;2023-11-18T00:16:24;102393.94;;;4.47;100.00
78892;BME280;68368;51.728;5.248;2023-11-18T00:18:28;102395.78;;;4.44;100.00
78892;BME280;68368;51.728;5.248;2023-11-18T00:20:33;102391.52;;;4.43;100.00
78892;BME280;68368;51.728;5.248;2023-11-18T00:22:38;102390.58;;;4.42;100.00
78892;BME280;68368;51.728;5.248;2023-11-18T00:24:43;102391.77;;;4.40;100.00
78892;BME280;68368;51.728;5.248;2023-11-18T00:26:48;102390.29;;;4.39;100.00
78892;BME280;68368;51.728;5.248;2023-11-18T00:28:53;102383.17;;;4.37;100.00
78892;BME280;68368;51.728;5.248;2023-11-18T00:30:57;102379.95;;;4.36;100.00
78892;BME280;68368;51.728;5.248;2023-11-18T00:33:02;102383.23;;;4.34;100.00
78892;BME280;68368;51.728;5.248;2023-11-18T00:35:09;102378.46;;;4.33;100.00
78892;BME280;68368;51.728;5.248;2023-11-18T00:37:14;102377.88;;;4.32;100.00
78892;BME280;68368;51.728;5.248;2023-11-18T00:39:21;102379.77;;;4.30;100.00
78892;BME280;68368;51.728;5.248;2023-11-18T00:41:26;102377.98;;;4.30;100.00
78892;BME280;68368;51.728;5.248;2023-11-18T00:43:30;102380.77;;;4.29;100.00
78892;BME280;68368;51.728;5.248;2023-11-18T00:45:35;102377.56;;;4.28;100.00
78892;BME280;68368;51.728;5.248;2023-11-18T00:47:43;102374.94;;;4.28;100.00
78892;BME280;68368;51.728;5.248;2023-11-18T00:49:47;102376.30;;;4.27;100.00
78892;BME280;68368;51.728;5.248;2023-11-18T00:51:52;102375.36;;;4.26;100.00
78892;BME280;68368;51.728;5.248;2023-11-18T00:53:57;102372.85;;;4.25;100.00
78892;BME280;68368;51.728;5.248;2023-11-18T00:56:03;102376.84;;;4.23;100.00
78892;BME280;68368;51.728;5.248;2023-11-18T00:58:07;102378.56;;;4.22;100.00
78892;BME280;68368;51.728;5.248;2023-11-18T01:00:15;102379.20;;;4.21;100.00
78892;BME280;68368;51.728;5.248;2023-11-18T01:02:19;102383.20;;;4.20;100.00
78892;BME280;68368;51.728;5.248;2023-11-18T01:04:24;102384.55;;;4.19;100.00
78892;BME280;68368;51.728;5.248;2023-11-18T01:06:29;102392.23;;;4.17;100.00
78892;BME280;68368;51.728;5.248;2023-11-18T01:08:34;102389.79;;;4.18;100.00
78892;BME280;68368;51.728;5.248;2023-11-18T01:10:39;102391.22;;;4.18;100.00
78892;BME280;68368;51.728;5.248;2023-11-18T01:12:44;102395.84;;;4.20;100.00
78892;BME280;68368;51.728;5.248;2023-11-18T01:14:48;102401.55;;;4.22;100.00
78892;BME280;68368;51.728;5.248;2023-11-18T01:16:53;102398.45;;;4.23;100.00
78892;BME280;68368;51.728;5.248;2023-11-18T01:18:59;102392.52;;;4.24;100.00
78892;BME280;68368;51.728;5.248;2023-11-18T01:21:04;102394.54;;;4.26;100.00
78892;BME280;68368;51.728;5.248;2023-11-18T01:23:12;102395.84;;;4.28;100.00
78892;BME280;68368;51.728;5.248;2023-11-18T01:25:18;102399.29;;;4.30;100.00
78892;BME280;68368;51.728;5.248;2023-11-18T01:27:23;102400.75;;;4.33;100.00
78892;BME280;68368;51.728;5.248;2023-11-18T01:29:27;102398.54;;;4.34;100.00
78892;BME280;68368;51.728;5.248;2023-11-18T01:31:32;102398.80;;;4.36;100.00
78892;BME280;68368;51.728;5.248;2023-11-18T01:33:37;102395.73;;;4.39;100.00
78892;BME280;68368;51.728;5.248;2023-11-18T01:35:42;102391.05;;;4.40;100.00
78892;BME280;68368;51.728;5.248;2023-11-18T01:37:47;102388.79;;;4.41;100.00
78892;BME280;68368;51.728;5.248;2023-11-18T01:39:52;102390.11;;;4.43;100.00
78892;BME280;68368;51.728;5.248;2023-11-18T01:41:58;102392.28;;;4.45;100.00
78892;BME280;68368;51.728;5.248;2023-11-18T01:44:02;102391.14;;;4.47;100.00
78892;BME280;68368;51.728;5.248;2023-11-18T01:46:10;102388.88;;;4.47;100.00
78892;BME280;68368;51.728;5.248;2023-11-18T01:48:15;102389.46;;;4.49;100.00
78892;BME280;68368;51.728;5.248;2023-11-18T01:50:20;102387.20;;;4.49;100.00
78892;BME280;68368;51.728;5.248;2023-11-18T01:52:25;102390.94;;;4.50;100.00
78892;BME280;68368;51.728;5.248;2023-11-18T01:54:31;102395.40;;;4.52;100.00
78892;BME280;68368;51.728;5.248;2023-11-18T01:56:36;102399.67;;;4.53;100.00
78892;BME280;68368;51.728;5.248;2023-11-18T01:58:41;102396.61;;;4.56;100.00
78892;BME280;68368;51.728;5.248;2023-11-18T02:00:46;102394.41;;;4.58;100.00
78892;BME280;68368;51.728;5.248;2023-11-18T02:02:51;102392.55;;;4.60;100.00
78892;BME280;68368;51.728;5.248;2023-11-18T02:04:56;102392.45;;;4.63;100.00
78892;BME280;68368;51.728;5.248;2023-11-18T02:07:01;102394.12;;;4.64;100.00
78892;BME280;68368;51.728;5.248;2023-11-18T02:09:06;102390.34;;;4.67;100.00
78892;BME280;68368;51.728;5.248;2023-11-18T02:11:27;102393.61;;;4.69;100.00
78892;BME280;68368;51.728;5.248;2023-11-18T02:13:37;102398.64;;;4.72;100.00
78892;BME280;68368;51.728;5.248;2023-11-18T02:15:46;102401.16;;;4.74;100.00
78892;BME280;68368;51.728;5.248;2023-11-18T02:17:54;102401.38;;;4.75;100.00
78892;BME280;68368;51.728;5.248;2023-11-18T02:20:00;102400.73;;;4.76;100.00
78892;BME280;68368;51.728;5.248;2023-11-18T02:22:06;102400.29;;;4.78;100.00
78892;BME280;68368;51.728;5.248;2023-11-18T02:24:13;102407.20;;;4.80;100.00
78892;BME280;68368;51.728;5.248;2023-11-18T02:26:28;102408.85;;;4.81;100.00
78892;BME280;68368;51.728;5.248;2023-11-18T02:28:33;102407.81;;;4.82;100.00
78892;BME280;68368;51.728;5.248;2023-11-18T02:30:38;102406.79;;;4.83;100.00
78892;BME280;68368;51.728;5.248;2023-11-18T02:32:50;102407.52;;;4.83;100.00
78892;BME280;68368;51.728;5.248;2023-11-18T02:34:58;102405.25;;;4.83;100.00
78892;BME280;68368;51.728;5.248;2023-11-18T02:37:07;102400.11;;;4.83;100.00
78892;BME280;68368;51.728;5.248;2023-11-18T02:39:24;102399.06;;;4.83;100.00
78892;BME280;68368;51.728;5.248;2023-11-18T02:41:31;102402.42;;;4.84;100.00
78892;BME280;68368;51.728;5.248;2023-11-18T02:43:37;102396.98;;;4.84;100.00
78892;BME280;68368;51.728;5.248;2023-11-18T02:45:42;102392.95;;;4.84;100.00
78892;BME280;68368;51.728;5.248;2023-11-18T02:47:48;102390.48;;;4.84;100.00
78892;BME280;68368;51.728;5.248;2023-11-18T02:49:57;102385.56;;;4.84;100.00
78892;BME280;68368;51.728;5.248;2023-11-18T02:52:02;102371.11;;;4.83;100.00
78892;BME280;68368;51.728;5.248;2023-11-18T02:54:08;102369.17;;;4.84;100.00
78892;BME280;68368;51.728;5.248;2023-11-18T02:56:13;102367.74;;;4.83;100.00
78892;BME280;68368;51.728;5.248;2023-11-18T02:58:18;102361.27;;;4.84;100.00
78892;BME280;68368;51.728;5.248;2023-11-18T03:00:23;102352.14;;;4.85;100.00
78892;BME280;68368;51.728;5.248;2023-11-18T03:02:27;102352.33;;;4.85;100.00
78892;BME280;68368;51.728;5.248;2023-11-18T03:04:32;102348.48;;;4.86;100.00
78892;BME280;68368;51.728;5.248;2023-11-18T03:06:37;102352.38;;;4.86;100.00
78892;BME280;68368;51.728;5.248;2023-11-18T03:08:42;102344.46;;;4.86;100.00
78892;BME280;68368;51.728;5.248;2023-11-18T03:10:47;102343.42;;;4.87;100.00
78892;BME280;68368;51.728;5.248;2023-11-18T03:12:53;102348.36;;;4.87;100.00
78892;BME280;68368;51.728;5.248;2023-11-18T03:14:58;102353.11;;;4.87;100.00
78892;BME280;68368;51.728;5.248;2023-11-18T03:17:04;102359.26;;;4.87;100.00
78892;BME280;68368;51.728;5.248;2023-11-18T03:19:12;102357.64;;;4.86;100.00
78892;BME280;68368;51.728;5.248;2023-11-18T03:21:16;102357.79;;;4.86;100.00
78892;BME280;68368;51.728;5.248;2023-11-18T03:23:21;102350.91;;;4.85;100.00
78892;BME280;68368;51.728;5.248;2023-11-18T03:25:27;102347.55;;;4.84;100.00
78892;BME280;68368;51.728;5.248;2023-11-18T03:27:33;102345.63;;;4.84;100.00
78892;BME280;68368;51.728;5.248;2023-11-18T03:29:38;102347.91;;;4.85;100.00
78892;BME280;68368;51.728;5.248;2023-11-18T03:31:42;102350.57;;;4.85;100.00
78892;BME280;68368;51.728;5.248;2023-11-18T03:33:47;102354.60;;;4.84;100.00
78892;BME280;68368;51.728;5.248;2023-11-18T03:35:52;102350.09;;;4.82;100.00
78892;BME280;68368;51.728;5.248;2023-11-18T03:37:57;102343.28;;;4.78;100.00
78892;BME280;68368;51.728;5.248;2023-11-18T03:40:02;102336.16;;;4.76;100.00
78892;BME280;68368;51.728;5.248;2023-11-18T03:42:07;102330.63;;;4.74;100.00
78892;BME280;68368;51.728;5.248;2023-11-18T03:44:12;102330.20;;;4.71;100.00
78892;BME280;68368;51.728;5.248;2023-11-18T03:46:17;102323.42;;;4.69;100.00
78892;BME280;68368;51.728;5.248;2023-11-18T03:48:22;102313.90;;;4.68;100.00
78892;BME280;68368;51.728;5.248;2023-11-18T03:50:27;102305.17;;;4.66;100.00
78892;BME280;68368;51.728;5.248;2023-11-18T03:52:31;102301.95;;;4.64;100.00
78892;BME280;68368;51.728;5.248;2023-11-18T03:54:36;102300.87;;;4.64;100.00
78892;BME280;68368;51.728;5.248;2023-11-18T03:56:43;102294.30;;;4.62;100.00
78892;BME280;68368;51.728;5.248;2023-11-18T03:58:48;102288.98;;;4.61;100.00
78892;BME280;68368;51.728;5.248;2023-11-18T04:00:53;102274.73;;;4.61;100.00
78892;BME280;68368;51.728;5.248;2023-11-18T04:02:58;102267.13;;;4.60;100.00
78892;BME280;68368;51.728;5.248;2023-11-18T04:05:03;102277.15;;;4.60;100.00
78892;BME280;68368;51.728;5.248;2023-11-18T04:07:08;102273.99;;;4.60;100.00
78892;BME280;68368;51.728;5.248;2023-11-18T04:09:12;102271.93;;;4.61;100.00
78892;BME280;68368;51.728;5.248;2023-11-18T04:11:17;102269.70;;;4.63;100.00
78892;BME280;68368;51.728;5.248;2023-11-18T04:13:22;102277.13;;;4.63;100.00
78892;BME280;68368;51.728;5.248;2023-11-18T04:15:27;102274.88;;;4.65;100.00
78892;BME280;68368;51.728;5.248;2023-11-18T04:17:32;102269.85;;;4.66;100.00
78892;BME280;68368;51.728;5.248;2023-11-18T04:19:38;102268.36;;;4.69;100.00
78892;BME280;68368;51.728;5.248;2023-11-18T04:21:43;102275.99;;;4.71;100.00
78892;BME280;68368;51.728;5.248;2023-11-18T04:23:48;102276.06;;;4.73;100.00
78892;BME280;68368;51.728;5.248;2023-11-18T04:25:52;102265.23;;;4.74;100.00
78892;BME280;68368;51.728;5.248;2023-11-18T04:27:57;102256.89;;;4.78;100.00
78892;BME280;68368;51.728;5.248;2023-11-18T04:30:02;102252.90;;;4.80;100.00
78892;BME280;68368;51.728;5.248;2023-11-18T04:32:07;102244.52;;;4.81;100.00
78892;BME280;68368;51.728;5.248;2023-11-18T04:34:12;102247.55;;;4.83;100.00
78892;BME280;68368;51.728;5.248;2023-11-18T04:36:18;102243.74;;;4.84;100.00
78892;BME280;68368;51.728;5.248;2023-11-18T04:38:23;102240.59;;;4.84;100.00
78892;BME280;68368;51.728;5.248;2023-11-18T04:40:28;102240.42;;;4.85;100.00
78892;BME280;68368;51.728;5.248;2023-11-18T04:42:33;102241.14;;;4.85;100.00
78892;BME280;68368;51.728;5.248;2023-11-18T04:44:38;102238.35;;;4.86;100.00
78892;BME280;68368;51.728;5.248;2023-11-18T04:46:42;102233.64;;;4.87;100.00
78892;BME280;68368;51.728;5.248;2023-11-18T04:48:50;102229.63;;;4.88;100.00
78892;BME280;68368;51.728;5.248;2023-11-18T04:50:55;102227.86;;;4.88;100.00
78892;BME280;68368;51.728;5.248;2023-11-18T04:52:59;102218.53;;;4.88;100.00
78892;BME280;68368;51.728;5.248;2023-11-18T04:55:05;102214.83;;;4.87;100.00
78892;BME280;68368;51.728;5.248;2023-11-18T04:57:11;102210.64;;;4.88;100.00
78892;BME280;68368;51.728;5.248;2023-11-18T04:59:16;102216.31;;;4.89;100.00
78892;BME280;68368;51.728;5.248;2023-11-18T05:01:21;102215.07;;;4.89;100.00
78892;BME280;68368;51.728;5.248;2023-11-18T05:03:25;102216.33;;;4.89;100.00
78892;BME280;68368;51.728;5.248;2023-11-18T05:05:30;102215.80;;;4.89;100.00
78892;BME280;68368;51.728;5.248;2023-11-18T05:07:38;102213.81;;;4.88;100.00
78892;BME280;68368;51.728;5.248;2023-11-18T05:09:44;102207.82;;;4.88;100.00
78892;BME280;68368;51.728;5.248;2023-11-18T05:11:49;102203.45;;;4.89;100.00
78892;BME280;68368;51.728;5.248;2023-11-18T05:13:54;102207.19;;;4.90;100.00
78892;BME280;68368;51.728;5.248;2023-11-18T05:15:59;102204.58;;;4.91;100.00
78892;BME280;68368;51.728;5.248;2023-11-18T05:18:04;102199.52;;;4.92;100.00
78892;BME280;68368;51.728;5.248;2023-11-18T05:20:10;102197.05;;;4.92;100.00
78892;BME280;68368;51.728;5.248;2023-11-18T05:22:18;102194.20;;;4.91;100.00
78892;BME280;68368;51.728;5.248;2023-11-18T05:24:23;102187.15;;;4.90;100.00
78892;BME280;68368;51.728;5.248;2023-11-18T05:26:27;102182.77;;;4.91;100.00
78892;BME280;68368;51.728;5.248;2023-11-18T05:28:32;102184.00;;;4.91;100.00
78892;BME280;68368;51.728;5.248;2023-11-18T05:30:41;102190.02;;;4.92;100.00
78892;BME280;68368;51.728;5.248;2023-11-18T05:32:46;102190.70;;;4.91;100.00
78892;BME280;68368;51.728;5.248;2023-11-18T05:34:52;102191.95;;;4.92;100.00
78892;BME280;68368;51.728;5.248;2023-11-18T05:36:57;102193.71;;;4.92;100.00
78892;BME280;68368;51.728;5.248;2023-11-18T05:39:02;102187.22;;;4.93;100.00
78892;BME280;68368;51.728;5.248;2023-11-18T05:41:07;102180.90;;;4.93;100.00
78892;BME280;68368;51.728;5.248;2023-11-18T05:43:12;102173.17;;;4.93;100.00
78892;BME280;68368;51.728;5.248;2023-11-18T05:45:16;102167.39;;;4.94;100.00
78892;BME280;68368;51.728;5.248;2023-11-18T05:47:21;102164.27;;;4.96;100.00
78892;BME280;68368;51.728;5.248;2023-11-18T05:49:26;102157.80;;;4.97;100.00
78892;BME280;68368;51.728;5.248;2023-11-18T05:51:31;102162.25;;;4.98;100.00
78892;BME280;68368;51.728;5.248;2023-11-18T05:53:36;102156.63;;;4.98;100.00
78892;BME280;68368;51.728;5.248;2023-11-18T05:55:46;102155.22;;;4.99;100.00
78892;BME280;68368;51.728;5.248;2023-11-18T05:57:50;102159.98;;;4.98;100.00
78892;BME280;68368;51.728;5.248;2023-11-18T05:59:55;102160.85;;;4.98;100.00
78892;BME280;68368;51.728;5.248;2023-11-18T06:02:00;102163.69;;;4.99;100.00
78892;BME280;68368;51.728;5.248;2023-11-18T06:04:20;102155.98;;;5.00;100.00
78892;BME280;68368;51.728;5.248;2023-11-18T06:06:25;102154.91;;;5.00;100.00
78892;BME280;68368;51.728;5.248;2023-11-18T06:08:30;102146.29;;;5.00;100.00
78892;BME280;68368;51.728;5.248;2023-11-18T06:10:34;102135.73;;;5.00;100.00
78892;BME280;68368;51.728;5.248;2023-11-18T06:12:39;102133.60;;;4.99;100.00
78892;BME280;68368;51.728;5.248;2023-11-18T06:14:44;102136.80;;;5.00;100.00
78892;BME280;68368;51.728;5.248;2023-11-18T06:16:50;102145.98;;;5.01;100.00
78892;BME280;68368;51.728;5.248;2023-11-18T06:18:56;102149.88;;;5.02;100.00
78892;BME280;68368;51.728;5.248;2023-11-18T06:21:01;102151.98;;;5.02;100.00
78892;BME280;68368;51.728;5.248;2023-11-18T06:23:06;102148.70;;;5.04;100.00
78892;BME280;68368;51.728;5.248;2023-11-18T06:25:11;102147.16;;;5.05;100.00
78892;BME280;68368;51.728;5.248;2023-11-18T06:27:16;102142.23;;;5.05;100.00
78892;BME280;68368;51.728;5.248;2023-11-18T06:29:21;102135.19;;;5.05;100.00
78892;BME280;68368;51.728;5.248;2023-11-18T06:31:25;102130.10;;;5.05;100.00
78892;BME280;68368;51.728;5.248;2023-11-18T06:33:30;102126.24;;;5.06;100.00
78892;BME280;68368;51.728;5.248;2023-11-18T06:35:38;102126.41;;;5.05;100.00
78892;BME280;68368;51.728;5.248;2023-11-18T06:37:43;102128.16;;;5.06;100.00
78892;BME280;68368;51.728;5.248;2023-11-18T06:39:48;102128.17;;;5.05;100.00
78892;BME280;68368;51.728;5.248;2023-11-18T06:41:53;102135.39;;;5.06;100.00
78892;BME280;68368;51.728;5.248;2023-11-18T06:43:57;102131.70;;;5.06;100.00
78892;BME280;68368;51.728;5.248;2023-11-18T06:46:03;102129.62;;;5.07;100.00
78892;BME280;68368;51.728;5.248;2023-11-18T06:48:08;102123.84;;;5.08;100.00
78892;BME280;68368;51.728;5.248;2023-11-18T06:50:13;102118.39;;;5.08;100.00
78892;BME280;68368;51.728;5.248;2023-11-18T06:52:17;102116.17;;;5.09;100.00
78892;BME280;68368;51.728;5.248;2023-11-18T06:54:26;102116.20;;;5.11;100.00
78892;BME280;68368;51.728;5.248;2023-11-18T06:56:30;102120.10;;;5.12;100.00
78892;BME280;68368;51.728;5.248;2023-11-18T06:58:38;102122.08;;;5.13;100.00
78892;BME280;68368;51.728;5.248;2023-11-18T07:00:43;102118.32;;;5.16;100.00
78892;BME280;68368;51.728;5.248;2023-11-18T07:02:47;102116.83;;;5.19;100.00
78892;BME280;68368;51.728;5.248;2023-11-18T07:04:52;102120.96;;;5.21;100.00
78892;BME280;68368;51.728;5.248;2023-11-18T07:06:57;102121.05;;;5.25;100.00
78892;BME280;68368;51.728;5.248;2023-11-18T07:09:01;102123.22;;;5.27;100.00
78892;BME280;68368;51.728;5.248;2023-11-18T07:11:07;102115.34;;;5.28;100.00
78892;BME280;68368;51.728;5.248;2023-11-18T07:13:12;102111.18;;;5.30;100.00
78892;BME280;68368;51.728;5.248;2023-11-18T07:15:17;102109.27;;;5.31;100.00
78892;BME280;68368;51.728;5.248;2023-11-18T07:17:21;102107.40;;;5.33;100.00
78892;BME280;68368;51.728;5.248;2023-11-18T07:19:26;102106.27;;;5.35;100.00
78892;BME280;68368;51.728;5.248;2023-11-18T07:21:31;102114.07;;;5.37;100.00
78892;BME280;68368;51.728;5.248;2023-11-18T07:23:36;102110.96;;;5.39;100.00
78892;BME280;68368;51.728;5.248;2023-11-18T07:25:41;102116.64;;;5.41;100.00
78892;BME280;68368;51.728;5.248;2023-11-18T07:27:46;102122.51;;;5.42;100.00
78892;BME280;68368;51.728;5.248;2023-11-18T07:29:51;102130.31;;;5.44;100.00
78892;BME280;68368;51.728;5.248;2023-11-18T07:31:55;102128.23;;;5.46;100.00
78892;BME280;68368;51.728;5.248;2023-11-18T07:34:00;102126.70;;;5.47;100.00
78892;BME280;68368;51.728;5.248;2023-11-18T07:36:07;102128.30;;;5.48;100.00
78892;BME280;68368;51.728;5.248;2023-11-18T07:38:12;102129.89;;;5.48;100.00
78892;BME280;68368;51.728;5.248;2023-11-18T07:40:17;102133.78;;;5.49;100.00
78892;BME280;68368;51.728;5.248;2023-11-18T07:42:22;102132.92;;;5.50;100.00
78892;BME280;68368;51.728;5.248;2023-11-18T07:44:27;102138.95;;;5.50;100.00
78892;BME280;68368;51.728;5.248;2023-11-18T07:46:32;102138.48;;;5.52;100.00
78892;BME280;68368;51.728;5.248;2023-11-18T07:48:37;102140.30;;;5.54;100.00
78892;BME280;68368;51.728;5.248;2023-11-18T07:50:43;102141.41;;;5.55;100.00
78892;BME280;68368;51.728;5.248;2023-11-18T07:52:48;102143.39;;;5.56;100.00
78892;BME280;68368;51.728;5.248;2023-11-18T07:54:53;102143.20;;;5.56;100.00
78892;BME280;68368;51.728;5.248;2023-11-18T07:56:59;102146.70;;;5.56;100.00
78892;BME280;68368;51.728;5.248;2023-11-18T07:59:03;102144.77;;;5.56;100.00
78892;BME280;68368;51.728;5.248;2023-11-18T08:01:08;102141.80;;;5.56;100.00
78892;BME280;68368;51.728;5.248;2023-11-18T08:03:13;102136.36;;;5.58;100.00
78892;BME280;68368;51.728;5.248;2023-11-18T08:05:18;102140.08;;;5.58;100.00
78892;BME280;68368;51.728;5.248;2023-11-18T08:07:23;102141.02;;;5.59;100.00
78892;BME280;68368;51.728;5.248;2023-11-18T08:09:28;102133.79;;;5.59;100.00
78892;BME280;68368;51.728;5.248;2023-11-18T08:11:33;102130.80;;;5.60;100.00
78892;BME280;68368;51.728;5.248;2023-11-18T08:13:37;102122.03;;;5.61;100.00
78892;BME280;68368;51.728;5.248;2023-11-18T08:15:43;102115.77;;;5.64;100.00
78892;BME280;68368;51.728;5.248;2023-11-18T08:17:48;102115.50;;;5.66;100.00
78892;BME280;68368;51.728;5.248;2023-11-18T08:19:53;102116.14;;;5.70;100.00
78892;BME280;68368;51.728;5.248;2023-11-18T08:22:00;102121.16;;;5.73;100.00
78892;BME280;68368;51.728;5.248;2023-11-18T08:24:07;102125.47;;;5.76;100.00
78892;BME280;68368;51.728;5.248;2023-11-18T08:26:14;102124.30;;;5.78;100.00
78892;BME280;68368;51.728;5.248;2023-11-18T08:28:18;102116.45;;;5.80;100.00
78892;BME280;68368;51.728;5.248;2023-11-18T08:30:23;102119.20;;;5.84;100.00
78892;BME280;68368;51.728;5.248;2023-11-18T08:32:28;102111.16;;;5.87;100.00
78892;BME280;68368;51.728;5.248;2023-11-18T08:34:33;102102.99;;;5.90;100.00
78892;BME280;68368;51.728;5.248;2023-11-18T08:36:38;102097.50;;;5.94;100.00
78892;BME280;68368;51.728;5.248;2023-11-18T08:38:42;102084.35;;;5.97;100.00
78892;BME280;68368;51.728;5.248;2023-11-18T08:40:47;102076.67;;;5.99;100.00
78892;BME280;68368;51.728;5.248;2023-11-18T08:42:53;102068.25;;;6.01;100.00
78892;BME280;68368;51.728;5.248;2023-11-18T08:44:58;102063.58;;;6.03;100.00
78892;BME280;68368;51.728;5.248;2023-11-18T08:47:03;102062.25;;;6.06;100.00
78892;BME280;68368;51.728;5.248;2023-11-18T08:49:08;102058.98;;;6.09;100.00
78892;BME280;68368;51.728;5.248;2023-11-18T08:51:12;102057.98;;;6.11;100.00
78892;BME280;68368;51.728;5.248;2023-11-18T08:53:17;102060.02;;;6.15;100.00
78892;BME280;68368;51.728;5.248;2023-11-18T08:55:22;102059.05;;;6.18;100.00
78892;BME280;68368;51.728;5.248;2023-11-18T08:57:27;102050.63;;;6.20;100.00
78892;BME280;68368;51.728;5.248;2023-11-18T08:59:32;102045.73;;;6.21;100.00
78892;BME280;68368;51.728;5.248;2023-11-18T09:01:36;102045.61;;;6.24;100.00
78892;BME280;68368;51.728;5.248;2023-11-18T09:03:42;102044.74;;;6.24;100.00
78892;BME280;68368;51.728;5.248;2023-11-18T09:05:48;102046.34;;;6.25;100.00
78892;BME280;68368;51.728;5.248;2023-11-18T09:07:53;102049.58;;;6.26;100.00
78892;BME280;68368;51.728;5.248;2023-11-18T09:09:58;102044.88;;;6.28;100.00
78892;BME280;68368;51.728;5.248;2023-11-18T09:12:04;102039.27;;;6.30;100.00
78892;BME280;68368;51.728;5.248;2023-11-18T09:14:09;102044.77;;;6.31;100.00
78892;BME280;68368;51.728;5.248;2023-11-18T09:16:14;102043.91;;;6.32;100.00
78892;BME280;68368;51.728;5.248;2023-11-18T09:18:19;102039.69;;;6.33;100.00
78892;BME280;68368;51.728;5.248;2023-11-18T09:20:24;102030.52;;;6.33;100.00
78892;BME280;68368;51.728;5.248;2023-11-18T09:22:31;102016.75;;;6.32;100.00
78892;BME280;68368;51.728;5.248;2023-11-18T09:24:36;102009.83;;;6.30;100.00
78892;BME280;68368;51.728;5.248;2023-11-18T09:26:41;102000.11;;;6.30;100.00
78892;BME280;68368;51.728;5.248;2023-11-18T09:28:46;101995.14;;;6.28;100.00
78892;BME280;68368;51.728;5.248;2023-11-18T09:30:51;101992.45;;;6.27;100.00
78892;BME280;68368;51.728;5.248;2023-11-18T09:32:55;102000.42;;;6.27;100.00
78892;BME280;68368;51.728;5.248;2023-11-18T09:35:00;101995.65;;;6.28;100.00
78892;BME280;68368;51.728;5.248;2023-11-18T09:37:05;101993.73;;;6.28;100.00
78892;BME280;68368;51.728;5.248;2023-11-18T09:39:11;101996.41;;;6.30;100.00
78892;BME280;68368;51.728;5.248;2023-11-18T09:41:17;101993.67;;;6.33;100.00
78892;BME280;68368;51.728;5.248;2023-11-18T09:43:23;101992.89;;;6.37;100.00
78892;BME280;68368;51.728;5.248;2023-11-18T09:45:28;101991.71;;;6.40;100.00
78892;BME280;68368;51.728;5.248;2023-11-18T09:47:36;101994.08;;;6.42;100.00
78892;BME280;68368;51.728;5.248;2023-11-18T09:49:47;101991.48;;;6.45;100.00
78892;BME280;68368;51.728;5.248;2023-11-18T09:51:53;101985.02;;;6.47;100.00
78892;BME280;68368;51.728;5.248;2023-11-18T09:54:04;101980.88;;;6.50;100.00
78892;BME280;68368;51.728;5.248;2023-11-18T09:56:16;101954.87;;;6.54;100.00
78892;BME280;68368;51.728;5.248;2023-11-18T09:58:24;101946.85;;;6.58;100.00
78892;BME280;68368;51.728;5.248;2023-11-18T10:00:29;101946.76;;;6.62;100.00
78892;BME280;68368;51.728;5.248;2023-11-18T10:02:36;101953.34;;;6.65;100.00
78892;BME280;68368;51.728;5.248;2023-11-18T10:04:43;101943.18;;;6.67;100.00
78892;BME280;68368;51.728;5.248;2023-11-18T10:06:49;101943.22;;;6.69;100.00
78892;BME280;68368;51.728;5.248;2023-11-18T10:08:58;101945.20;;;6.70;100.00
78892;BME280;68368;51.728;5.248;2023-11-18T10:11:04;101943.85;;;6.73;100.00
78892;BME280;68368;51.728;5.248;2023-11-18T10:13:08;101934.02;;;6.75;100.00
78892;BME280;68368;51.728;5.248;2023-11-18T10:15:15;101920.89;;;6.80;100.00
78892;BME280;68368;51.728;5.248;2023-11-18T10:17:22;101917.84;;;6.85;100.00
78892;BME280;68368;51.728;5.248;2023-11-18T10:19:29;101914.73;;;6.89;100.00
78892;BME280;68368;51.728;5.248;2023-11-18T10:21:53;101924.02;;;6.93;100.00
78892;BME280;68368;51.728;5.248;2023-11-18T10:24:06;101925.49;;;6.96;100.00
78892;BME280;68368;51.728;5.248;2023-11-18T10:26:11;101914.23;;;6.97;100.00
78892;BME280;68368;51.728;5.248;2023-11-18T10:28:27;101931.36;;;6.98;100.00
78892;BME280;68368;51.728;5.248;2023-11-18T10:30:36;101934.89;;;6.98;100.00
78892;BME280;68368;51.728;5.248;2023-11-18T10:32:58;101926.27;;;6.99;100.00
78892;BME280;68368;51.728;5.248;2023-11-18T10:35:05;101910.75;;;7.00;100.00
78892;BME280;68368;51.728;5.248;2023-11-18T10:37:10;101904.13;;;7.04;100.00
78892;BME280;68368;51.728;5.248;2023-11-18T10:39:16;101907.39;;;7.09;100.00
78892;BME280;68368;51.728;5.248;2023-11-18T10:41:21;101908.36;;;7.13;100.00
78892;BME280;68368;51.728;5.248;2023-11-18T10:43:26;101901.88;;;7.15;100.00
78892;BME280;68368;51.728;5.248;2023-11-18T10:45:31;101903.02;;;7.18;100.00
78892;BME280;68368;51.728;5.248;2023-11-18T10:47:37;101897.05;;;7.21;100.00
78892;BME280;68368;51.728;5.248;2023-11-18T10:49:42;101901.54;;;7.23;100.00
78892;BME280;68368;51.728;5.248;2023-11-18T10:51:47;101901.20;;;7.24;100.00
78892;BME280;68368;51.728;5.248;2023-11-18T10:53:54;101897.70;;;7.26;100.00
78892;BME280;68368;51.728;5.248;2023-11-18T10:55:59;101897.73;;;7.28;100.00
78892;BME280;68368;51.728;5.248;2023-11-18T10:58:04;101898.52;;;7.31;100.00